createdAt,value
2018-11-27T00:00:33.901Z,0.00
2018-11-27T00:01:08.641Z,0.00
2018-11-27T00:01:43.181Z,0.00
2018-11-27T00:02:17.865Z,0.00
2018-11-27T00:02:53.783Z,0.00
2018-11-27T00:03:32.423Z,0.00
2018-11-27T00:04:07.235Z,0.00
2018-11-27T00:04:41.783Z,0.00
2018-11-27T00:05:16.361Z,0.00
2018-11-27T00:05:50.882Z,0.00
2018-11-27T00:06:25.861Z,0.00
2018-11-27T00:07:00.301Z,-0.10
2018-11-27T00:07:35.002Z,0.00
2018-11-27T00:08:09.663Z,0.00
2018-11-27T00:08:44.329Z,-0.10
2018-11-27T00:09:18.821Z,0.00
2018-11-27T00:09:53.441Z,0.00
2018-11-27T00:10:27.981Z,0.00
2018-11-27T00:11:02.681Z,0.00
2018-11-27T00:11:37.283Z,0.00
2018-11-27T00:12:11.902Z,0.00
2018-11-27T00:12:46.441Z,0.00
2018-11-27T00:13:21.001Z,0.00
2018-11-27T00:13:55.562Z,0.00
2018-11-27T00:14:30.203Z,0.00
2018-11-27T00:15:06.061Z,0.00
2018-11-27T00:15:40.601Z,-0.10
2018-11-27T00:16:15.421Z,-0.10
2018-11-27T00:16:49.921Z,-0.10
2018-11-27T00:17:24.623Z,-0.10
2018-11-27T00:17:59.201Z,-0.10
2018-11-27T00:18:33.861Z,0.00
2018-11-27T00:19:08.401Z,0.00
2018-11-27T00:19:42.961Z,-0.10
2018-11-27T00:20:17.501Z,-0.10
2018-11-27T00:20:52.189Z,-0.10
2018-11-27T00:21:26.841Z,0.00
2018-11-27T00:22:01.583Z,-0.10
2018-11-27T00:22:36.141Z,-0.10
2018-11-27T00:23:10.843Z,-0.10
2018-11-27T00:23:45.362Z,-0.10
2018-11-27T00:24:20.081Z,-0.20
2018-11-27T00:24:54.701Z,-0.20
2018-11-27T00:25:29.381Z,-0.10
2018-11-27T00:26:03.821Z,-0.20
2018-11-27T00:26:38.503Z,-0.10
2018-11-27T00:27:13.121Z,-0.10
2018-11-27T00:27:47.823Z,-0.10
2018-11-27T00:28:22.362Z,-0.10
2018-11-27T00:28:57.061Z,-0.10
2018-11-27T00:29:31.582Z,-0.10
2018-11-27T00:30:12.461Z,-0.10
2018-11-27T00:30:46.941Z,-0.10
2018-11-27T00:31:21.661Z,-0.10
2018-11-27T00:31:56.381Z,-0.10
2018-11-27T00:32:31.121Z,-0.20
2018-11-27T00:33:05.781Z,-0.10
2018-11-27T00:33:40.281Z,-0.10
2018-11-27T00:34:14.841Z,-0.10
2018-11-27T00:34:49.400Z,-0.10
2018-11-27T00:35:23.963Z,-0.10
2018-11-27T00:35:58.381Z,-0.10
2018-11-27T00:36:33.076Z,-0.10
2018-11-27T00:37:07.661Z,-0.10
2018-11-27T00:37:42.341Z,-0.10
2018-11-27T00:38:16.821Z,-0.20
2018-11-27T00:38:51.482Z,-0.20
2018-11-27T00:39:25.921Z,-0.10
2018-11-27T00:40:00.621Z,-0.20
2018-11-27T00:40:35.241Z,-0.20
2018-11-27T00:41:09.941Z,-0.10
2018-11-27T00:41:44.482Z,-0.10
2018-11-27T00:42:19.042Z,-0.20
2018-11-27T00:42:53.661Z,-0.20
2018-11-27T00:43:28.161Z,-0.20
2018-11-27T00:44:02.721Z,-0.20
2018-11-27T00:44:37.782Z,-0.20
2018-11-27T00:45:14.301Z,-0.20
2018-11-27T00:45:48.901Z,-0.20
2018-11-27T00:46:23.421Z,-0.20
2018-11-27T00:46:58.081Z,-0.20
2018-11-27T00:47:32.562Z,-0.20
2018-11-27T00:48:07.541Z,-0.20
2018-11-27T00:48:42.201Z,-0.20
2018-11-27T00:49:16.761Z,-0.20
2018-11-27T00:49:51.461Z,-0.20
2018-11-27T00:50:26.002Z,-0.20
2018-11-27T00:51:00.581Z,-0.20
2018-11-27T00:51:35.201Z,-0.20
2018-11-27T00:52:09.741Z,-0.20
2018-11-27T00:52:44.352Z,-0.20
2018-11-27T00:53:18.942Z,-0.20
2018-11-27T00:53:53.561Z,-0.20
2018-11-27T00:54:28.101Z,-0.20
2018-11-27T00:55:02.741Z,-0.20
2018-11-27T00:55:37.321Z,-0.20
2018-11-27T00:56:11.861Z,-0.20
2018-11-27T00:56:46.421Z,-0.20
2018-11-27T00:57:21.001Z,-0.20
2018-11-27T00:57:55.526Z,-0.20
2018-11-27T00:58:30.220Z,-0.20
2018-11-27T00:59:11.141Z,-0.20
2018-11-27T00:59:45.781Z,-0.20
2018-11-27T01:00:22.065Z,-0.20
2018-11-27T01:00:56.742Z,-0.20
2018-11-27T01:01:31.201Z,-0.10
2018-11-27T01:02:06.129Z,-0.10
2018-11-27T01:02:40.661Z,-0.20
2018-11-27T01:03:15.341Z,-0.20
2018-11-27T01:03:49.961Z,-0.20
2018-11-27T01:04:24.641Z,-0.20
2018-11-27T01:04:59.341Z,-0.20
2018-11-27T01:05:33.862Z,-0.20
2018-11-27T01:06:08.541Z,-0.20
2018-11-27T01:06:43.081Z,-0.20
2018-11-27T01:07:17.541Z,-0.20
2018-11-27T01:07:52.085Z,-0.20
2018-11-27T01:08:26.621Z,-0.20
2018-11-27T01:09:01.429Z,-0.20
2018-11-27T01:09:35.981Z,-0.20
2018-11-27T01:10:12.081Z,-0.20
2018-11-27T01:10:46.801Z,-0.20
2018-11-27T01:11:21.521Z,-0.20
2018-11-27T01:11:56.061Z,-0.20
2018-11-27T01:12:30.721Z,-0.30
2018-11-27T01:13:05.292Z,-0.20
2018-11-27T01:13:39.961Z,-0.30
2018-11-27T01:14:14.662Z,-0.30
2018-11-27T01:14:49.261Z,-0.30
2018-11-27T01:15:24.061Z,-0.20
2018-11-27T01:15:58.740Z,-0.20
2018-11-27T01:16:33.261Z,-0.30
2018-11-27T01:17:07.944Z,-0.30
2018-11-27T01:17:49.521Z,-0.20
2018-11-27T01:18:24.201Z,-0.20
2018-11-27T01:18:58.640Z,-0.20
2018-11-27T01:19:33.242Z,-0.30
2018-11-27T01:20:11.681Z,-0.30
2018-11-27T01:20:46.221Z,-0.30
2018-11-27T01:21:20.681Z,-0.20
2018-11-27T01:21:55.347Z,-0.30
2018-11-27T01:22:29.881Z,-0.20
2018-11-27T01:23:04.461Z,-0.30
2018-11-27T01:23:39.001Z,-0.20
2018-11-27T01:24:13.700Z,-0.30
2018-11-27T01:24:48.201Z,-0.20
2018-11-27T01:25:22.781Z,-0.20
2018-11-27T01:25:57.342Z,-0.20
2018-11-27T01:26:32.061Z,-0.20
2018-11-27T01:27:06.901Z,-0.30
2018-11-27T01:27:41.604Z,-0.30
2018-11-27T01:28:16.161Z,-0.30
2018-11-27T01:28:50.781Z,-0.30
2018-11-27T01:29:25.321Z,-0.30
2018-11-27T01:30:00.082Z,-0.30
2018-11-27T01:30:34.621Z,-0.30
2018-11-27T01:31:09.120Z,-0.30
2018-11-27T01:31:43.661Z,-0.30
2018-11-27T01:32:18.361Z,-0.30
2018-11-27T01:32:53.080Z,-0.20
2018-11-27T01:33:27.820Z,-0.30
2018-11-27T01:34:02.422Z,-0.30
2018-11-27T01:34:37.122Z,-0.30
2018-11-27T01:35:15.694Z,-0.30
2018-11-27T01:35:50.284Z,-0.30
2018-11-27T01:36:24.841Z,-0.30
2018-11-27T01:36:59.364Z,-0.30
2018-11-27T01:37:33.989Z,-0.30
2018-11-27T01:38:08.461Z,-0.30
2018-11-27T01:38:43.020Z,-0.30
2018-11-27T01:39:17.621Z,-0.30
2018-11-27T01:39:52.081Z,-0.30
2018-11-27T01:40:27.820Z,-0.30
2018-11-27T01:41:02.450Z,-0.30
2018-11-27T01:41:37.040Z,-0.30
2018-11-27T01:42:11.701Z,-0.30
2018-11-27T01:42:46.722Z,-0.30
2018-11-27T01:43:21.342Z,-0.30
2018-11-27T01:43:56.020Z,-0.40
2018-11-27T01:44:30.641Z,-0.30
2018-11-27T01:45:05.981Z,-0.40
2018-11-27T01:45:40.760Z,-0.40
2018-11-27T01:46:15.220Z,-0.30
2018-11-27T01:46:49.901Z,-0.30
2018-11-27T01:47:24.522Z,-0.30
2018-11-27T01:47:59.220Z,-0.40
2018-11-27T01:48:33.880Z,-0.30
2018-11-27T01:49:08.541Z,-0.30
2018-11-27T01:49:43.044Z,-0.30
2018-11-27T01:50:18.284Z,-0.30
2018-11-27T01:50:52.962Z,-0.30
2018-11-27T01:51:27.521Z,-0.30
2018-11-27T01:52:02.201Z,-0.40
2018-11-27T01:52:36.761Z,-0.40
2018-11-27T01:53:17.681Z,-0.40
2018-11-27T01:53:52.211Z,-0.40
2018-11-27T01:54:26.802Z,-0.30
2018-11-27T01:55:01.342Z,-0.40
2018-11-27T01:55:36.041Z,-0.40
2018-11-27T01:56:10.701Z,-0.40
2018-11-27T01:56:45.360Z,-0.40
2018-11-27T01:57:19.880Z,-0.40
2018-11-27T01:57:54.582Z,-0.30
2018-11-27T01:58:29.201Z,-0.40
2018-11-27T01:59:03.902Z,-0.40
2018-11-27T01:59:38.421Z,-0.30
2018-11-27T02:00:21.483Z,-0.30
2018-11-27T02:00:56.120Z,-0.30
2018-11-27T02:01:30.822Z,-0.30
2018-11-27T02:02:05.441Z,-0.30
2018-11-27T02:02:39.881Z,-0.30
2018-11-27T02:03:14.582Z,-0.30
2018-11-27T02:03:49.121Z,-0.30
2018-11-27T02:04:23.801Z,-0.30
2018-11-27T02:04:58.326Z,-0.30
2018-11-27T02:05:33.009Z,-0.30
2018-11-27T02:06:07.721Z,-0.30
2018-11-27T02:06:42.321Z,-0.30
2018-11-27T02:07:16.882Z,-0.30
2018-11-27T02:07:51.541Z,-0.30
2018-11-27T02:08:26.081Z,-0.30
2018-11-27T02:09:00.782Z,-0.30
2018-11-27T02:09:35.322Z,-0.30
2018-11-27T02:10:11.982Z,-0.30
2018-11-27T02:10:46.562Z,-0.30
2018-11-27T02:11:21.161Z,-0.30
2018-11-27T02:11:55.781Z,-0.30
2018-11-27T02:12:30.403Z,-0.30
2018-11-27T02:13:04.941Z,-0.20
2018-11-27T02:13:39.501Z,-0.20
2018-11-27T02:14:14.041Z,-0.20
2018-11-27T02:14:48.621Z,-0.20
2018-11-27T02:15:28.181Z,-0.30
2018-11-27T02:16:02.681Z,-0.30
2018-11-27T02:16:37.301Z,-0.30
2018-11-27T02:17:11.961Z,-0.30
2018-11-27T02:17:46.504Z,-0.30
2018-11-27T02:18:21.101Z,-0.30
2018-11-27T02:18:55.641Z,-0.30
2018-11-27T02:19:30.342Z,-0.30
2018-11-27T02:20:05.002Z,-0.30
2018-11-27T02:20:39.582Z,-0.30
2018-11-27T02:21:14.085Z,-0.30
2018-11-27T02:21:48.781Z,-0.30
2018-11-27T02:22:23.441Z,-0.30
2018-11-27T02:22:58.020Z,-0.30
2018-11-27T02:23:32.641Z,-0.30
2018-11-27T02:24:07.381Z,-0.30
2018-11-27T02:24:41.863Z,-0.30
2018-11-27T02:25:23.922Z,-0.30
2018-11-27T02:25:58.364Z,-0.20
2018-11-27T02:26:32.903Z,-0.30
2018-11-27T02:27:07.723Z,-0.20
2018-11-27T02:27:42.261Z,-0.30
2018-11-27T02:28:16.902Z,-0.20
2018-11-27T02:28:51.343Z,-0.20
2018-11-27T02:29:26.101Z,-0.30
2018-11-27T02:30:00.549Z,-0.30
2018-11-27T02:30:35.122Z,-0.30
2018-11-27T02:31:09.642Z,-0.30
2018-11-27T02:31:44.344Z,-0.30
2018-11-27T02:32:18.903Z,-0.30
2018-11-27T02:32:53.662Z,-0.30
2018-11-27T02:33:28.202Z,-0.30
2018-11-27T02:34:02.922Z,-0.30
2018-11-27T02:34:37.541Z,-0.30
2018-11-27T02:35:14.863Z,-0.40
2018-11-27T02:35:49.403Z,-0.40
2018-11-27T02:36:23.943Z,-0.40
2018-11-27T02:36:58.561Z,-0.40
2018-11-27T02:37:33.061Z,-0.40
2018-11-27T02:38:07.722Z,-0.40
2018-11-27T02:38:42.245Z,-0.40
2018-11-27T02:39:16.862Z,-0.40
2018-11-27T02:39:51.423Z,-0.40
2018-11-27T02:40:26.061Z,-0.40
2018-11-27T02:41:00.582Z,-0.40
2018-11-27T02:41:35.083Z,-0.40
2018-11-27T02:42:09.663Z,-0.50
2018-11-27T02:42:44.304Z,-0.40
2018-11-27T02:43:18.942Z,-0.40
2018-11-27T02:43:53.602Z,-0.40
2018-11-27T02:44:28.162Z,-0.40
2018-11-27T02:45:02.861Z,-0.40
2018-11-27T02:45:37.389Z,-0.50
2018-11-27T02:46:12.082Z,-0.40
2018-11-27T02:46:46.624Z,-0.40
2018-11-27T02:47:21.210Z,-0.40
2018-11-27T02:47:56.064Z,-0.50
2018-11-27T02:48:37.182Z,-0.40
2018-11-27T02:49:11.724Z,-0.40
2018-11-27T02:49:46.422Z,-0.40
2018-11-27T02:50:22.045Z,-0.50
2018-11-27T02:50:56.582Z,-0.50
2018-11-27T02:51:31.161Z,-0.50
2018-11-27T02:52:05.802Z,-0.50
2018-11-27T02:52:40.521Z,-0.50
2018-11-27T02:53:15.144Z,-0.50
2018-11-27T02:53:49.863Z,-0.50
2018-11-27T02:54:24.361Z,-0.50
2018-11-27T02:54:59.065Z,-0.50
2018-11-27T02:55:33.629Z,-0.50
2018-11-27T02:56:08.143Z,-0.50
2018-11-27T02:56:42.701Z,-0.50
2018-11-27T02:57:17.266Z,-0.50
2018-11-27T02:57:51.831Z,-0.50
2018-11-27T02:58:26.405Z,-0.50
2018-11-27T02:59:00.903Z,-0.50
2018-11-27T02:59:35.421Z,-0.50
2018-11-27T03:00:12.782Z,-0.50
2018-11-27T03:00:47.362Z,-0.50
2018-11-27T03:01:21.861Z,-0.50
2018-11-27T03:01:56.461Z,-0.50
2018-11-27T03:02:30.922Z,-0.50
2018-11-27T03:03:05.784Z,-0.50
2018-11-27T03:03:40.463Z,-0.60
2018-11-27T03:04:15.064Z,-0.50
2018-11-27T03:04:49.582Z,-0.50
2018-11-27T03:05:28.368Z,-0.60
2018-11-27T03:06:02.824Z,-0.50
2018-11-27T03:06:37.389Z,-0.60
2018-11-27T03:07:12.003Z,-0.50
2018-11-27T03:07:46.544Z,-0.50
2018-11-27T03:08:21.102Z,-0.50
2018-11-27T03:08:55.763Z,-0.50
2018-11-27T03:09:30.445Z,-0.50
2018-11-27T03:10:05.666Z,-0.50
2018-11-27T03:10:40.143Z,-0.60
2018-11-27T03:11:14.802Z,-0.60
2018-11-27T03:11:49.241Z,-0.50
2018-11-27T03:12:23.763Z,-0.60
2018-11-27T03:12:58.449Z,-0.50
2018-11-27T03:13:32.943Z,-0.50
2018-11-27T03:14:08.101Z,-0.50
2018-11-27T03:14:42.861Z,-0.50
2018-11-27T03:15:18.101Z,-0.50
2018-11-27T03:15:52.662Z,-0.60
2018-11-27T03:16:27.322Z,-0.60
2018-11-27T03:17:01.869Z,-0.60
2018-11-27T03:17:36.542Z,-0.60
2018-11-27T03:18:10.963Z,-0.60
2018-11-27T03:18:45.581Z,-0.60
2018-11-27T03:19:20.281Z,-0.60
2018-11-27T03:19:54.804Z,-0.60
2018-11-27T03:20:29.303Z,-0.60
2018-11-27T03:21:03.762Z,-0.60
2018-11-27T03:21:38.422Z,-0.60
2018-11-27T03:22:12.982Z,-0.60
2018-11-27T03:22:47.541Z,-0.60
2018-11-27T03:23:22.081Z,-0.60
2018-11-27T03:23:56.722Z,-0.60
2018-11-27T03:24:31.221Z,-0.60
2018-11-27T03:25:06.724Z,-0.60
2018-11-27T03:25:41.321Z,-0.60
2018-11-27T03:26:15.742Z,-0.60
2018-11-27T03:26:50.243Z,-0.60
2018-11-27T03:27:24.962Z,-0.60
2018-11-27T03:27:59.521Z,-0.60
2018-11-27T03:28:34.181Z,-0.60
2018-11-27T03:29:08.721Z,-0.60
2018-11-27T03:29:43.401Z,-0.60
2018-11-27T03:30:19.882Z,-0.60
2018-11-27T03:30:54.462Z,-0.60
2018-11-27T03:31:29.063Z,-0.60
2018-11-27T03:32:03.604Z,-0.60
2018-11-27T03:32:38.309Z,-0.60
2018-11-27T03:33:12.938Z,-0.60
2018-11-27T03:33:47.422Z,-0.60
2018-11-27T03:34:22.021Z,-0.60
2018-11-27T03:34:56.621Z,-0.60
2018-11-27T03:35:31.242Z,-0.60
2018-11-27T03:36:05.902Z,-0.60
2018-11-27T03:36:40.482Z,-0.70
2018-11-27T03:37:15.182Z,-0.60
2018-11-27T03:37:50.010Z,-0.60
2018-11-27T03:38:24.601Z,-0.70
2018-11-27T03:38:59.141Z,-0.60
2018-11-27T03:39:33.842Z,-0.60
2018-11-27T03:40:12.062Z,-0.70
2018-11-27T03:40:46.742Z,-0.60
2018-11-27T03:41:21.102Z,-0.60
2018-11-27T03:41:55.642Z,-0.60
2018-11-27T03:42:30.184Z,-0.60
2018-11-27T03:43:04.929Z,-0.60
2018-11-27T03:43:39.462Z,-0.70
2018-11-27T03:44:14.101Z,-0.70
2018-11-27T03:44:48.524Z,-0.60
2018-11-27T03:45:23.842Z,-0.70
2018-11-27T03:45:58.643Z,-0.70
2018-11-27T03:46:33.181Z,-0.70
2018-11-27T03:47:07.762Z,-0.70
2018-11-27T03:47:42.201Z,-0.70
2018-11-27T03:48:16.762Z,-0.70
2018-11-27T03:48:51.302Z,-0.60
2018-11-27T03:49:25.842Z,-0.70
2018-11-27T03:50:00.622Z,-0.70
2018-11-27T03:50:35.302Z,-0.70
2018-11-27T03:51:10.023Z,-0.70
2018-11-27T03:51:44.503Z,-0.70
2018-11-27T03:52:19.183Z,-0.70
2018-11-27T03:52:53.630Z,-0.70
2018-11-27T03:53:28.203Z,-0.70
2018-11-27T03:54:02.823Z,-0.70
2018-11-27T03:54:37.502Z,-0.70
2018-11-27T03:55:12.745Z,-0.70
2018-11-27T03:55:47.263Z,-0.70
2018-11-27T03:56:22.062Z,-0.70
2018-11-27T03:56:56.642Z,-0.70
2018-11-27T03:57:31.284Z,-0.70
2018-11-27T03:58:05.723Z,-0.70
2018-11-27T03:58:40.146Z,-0.70
2018-11-27T03:59:14.827Z,-0.70
2018-11-27T03:59:49.322Z,-0.70
2018-11-27T04:00:28.387Z,-0.70
2018-11-27T04:01:02.945Z,-0.70
2018-11-27T04:01:37.841Z,-0.70
2018-11-27T04:02:12.222Z,-0.70
2018-11-27T04:02:47.966Z,-0.70
2018-11-27T04:03:22.522Z,-0.70
2018-11-27T04:03:57.143Z,-0.70
2018-11-27T04:04:31.804Z,-0.70
2018-11-27T04:05:06.801Z,-0.70
2018-11-27T04:05:41.622Z,-0.80
2018-11-27T04:06:16.183Z,-0.70
2018-11-27T04:06:50.762Z,-0.70
2018-11-27T04:07:25.422Z,-0.70
2018-11-27T04:07:59.942Z,-0.70
2018-11-27T04:08:34.522Z,-0.70
2018-11-27T04:09:10.603Z,-0.70
2018-11-27T04:09:45.283Z,-0.70
2018-11-27T04:10:20.362Z,-0.70
2018-11-27T04:10:54.961Z,-0.70
2018-11-27T04:11:29.401Z,-0.70
2018-11-27T04:12:04.022Z,-0.70
2018-11-27T04:12:38.582Z,-0.70
2018-11-27T04:13:13.168Z,-0.70
2018-11-27T04:13:47.702Z,-0.70
2018-11-27T04:14:22.283Z,-0.70
2018-11-27T04:14:56.955Z,-0.70
2018-11-27T04:15:31.658Z,-0.70
2018-11-27T04:16:06.497Z,-0.70
2018-11-27T04:16:41.175Z,-0.70
2018-11-27T04:17:15.846Z,-0.70
2018-11-27T04:17:50.565Z,-0.70
2018-11-27T04:18:25.052Z,-0.70
2018-11-27T04:18:59.693Z,-0.70
2018-11-27T04:19:34.246Z,-0.70
2018-11-27T04:20:09.791Z,-0.70
2018-11-27T04:20:44.378Z,-0.70
2018-11-27T04:21:18.964Z,-0.70
2018-11-27T04:21:53.704Z,-0.70
2018-11-27T04:22:28.324Z,-0.70
2018-11-27T04:23:02.925Z,-0.70
2018-11-27T04:23:37.424Z,-0.70
2018-11-27T04:24:12.145Z,-0.70
2018-11-27T04:24:46.831Z,-0.70
2018-11-27T04:25:21.565Z,-0.70
2018-11-27T04:25:56.165Z,-0.70
2018-11-27T04:26:30.824Z,-0.70
2018-11-27T04:27:05.366Z,-0.70
2018-11-27T04:27:40.184Z,-0.70
2018-11-27T04:28:14.684Z,-0.70
2018-11-27T04:28:49.344Z,-0.70
2018-11-27T04:29:23.908Z,-0.70
2018-11-27T04:29:58.565Z,-0.70
2018-11-27T04:30:33.185Z,-0.70
2018-11-27T04:31:07.784Z,-0.70
2018-11-27T04:31:42.384Z,-0.70
2018-11-27T04:32:17.004Z,-0.70
2018-11-27T04:32:51.714Z,-0.70
2018-11-27T04:33:26.544Z,-0.70
2018-11-27T04:34:01.105Z,-0.60
2018-11-27T04:34:35.644Z,-0.60
2018-11-27T04:35:11.364Z,-0.60
2018-11-27T04:35:45.987Z,-0.70
2018-11-27T04:36:20.628Z,-0.70
2018-11-27T04:36:55.184Z,-0.70
2018-11-27T04:37:29.825Z,-0.60
2018-11-27T04:38:04.505Z,-0.70
2018-11-27T04:38:39.066Z,-0.70
2018-11-27T04:39:13.753Z,-0.70
2018-11-27T04:39:48.406Z,-0.70
2018-11-27T04:40:23.324Z,-0.80
2018-11-27T04:40:57.932Z,-0.70
2018-11-27T04:41:32.624Z,-0.70
2018-11-27T04:42:07.444Z,-0.70
2018-11-27T04:42:42.071Z,-0.70
2018-11-27T04:43:16.648Z,-0.70
2018-11-27T04:43:51.225Z,-0.70
2018-11-27T04:44:25.666Z,-0.80
2018-11-27T04:45:00.405Z,-0.80
2018-11-27T04:45:34.946Z,-0.80
2018-11-27T04:46:09.624Z,-0.80
2018-11-27T04:46:44.265Z,-0.80
2018-11-27T04:47:18.975Z,-0.80
2018-11-27T04:47:53.593Z,-0.80
2018-11-27T04:48:28.335Z,-0.80
2018-11-27T04:49:02.916Z,-0.80
2018-11-27T04:49:37.493Z,-0.80
2018-11-27T04:50:13.389Z,-0.80
2018-11-27T04:50:48.053Z,-0.80
2018-11-27T04:51:22.815Z,-0.80
2018-11-27T04:51:57.723Z,-0.80
2018-11-27T04:52:32.859Z,-0.80
2018-11-27T04:53:07.715Z,-0.80
2018-11-27T04:53:42.623Z,-0.80
2018-11-27T04:54:17.374Z,-0.80
2018-11-27T04:54:51.994Z,-0.80
2018-11-27T04:55:26.734Z,-0.80
2018-11-27T04:56:01.314Z,-0.80
2018-11-27T04:56:36.035Z,-0.80
2018-11-27T04:57:10.653Z,-0.80
2018-11-27T04:57:45.873Z,-0.80
2018-11-27T04:58:20.463Z,-0.80
2018-11-27T04:58:55.316Z,-0.70
2018-11-27T04:59:30.096Z,-0.80
2018-11-27T05:00:05.035Z,-0.70
2018-11-27T05:00:39.713Z,-0.70
2018-11-27T05:01:14.453Z,-0.70
2018-11-27T05:01:49.074Z,-0.70
2018-11-27T05:02:23.754Z,-0.70
2018-11-27T05:02:58.455Z,-0.70
2018-11-27T05:03:33.313Z,-0.70
2018-11-27T05:04:08.176Z,-0.70
2018-11-27T05:04:43.253Z,-0.70
2018-11-27T05:05:18.808Z,-0.70
2018-11-27T05:05:53.474Z,-0.70
2018-11-27T05:06:28.053Z,-0.70
2018-11-27T05:07:02.793Z,-0.70
2018-11-27T05:07:37.373Z,-0.70
2018-11-27T05:08:12.055Z,-0.70
2018-11-27T05:08:46.694Z,-0.70
2018-11-27T05:09:21.454Z,-0.70
2018-11-27T05:09:56.133Z,-0.70
2018-11-27T05:10:30.813Z,-0.70
2018-11-27T05:11:05.453Z,-0.70
2018-11-27T05:11:40.116Z,-0.70
2018-11-27T05:12:14.693Z,-0.70
2018-11-27T05:12:49.453Z,-0.70
2018-11-27T05:13:24.093Z,-0.70
2018-11-27T05:13:58.573Z,-0.70
2018-11-27T05:14:33.206Z,-0.70
2018-11-27T05:15:11.914Z,-0.70
2018-11-27T05:15:46.434Z,-0.70
2018-11-27T05:16:21.073Z,-0.70
2018-11-27T05:16:55.733Z,-0.70
2018-11-27T05:17:30.174Z,-0.70
2018-11-27T05:18:04.813Z,-0.70
2018-11-27T05:18:39.373Z,-0.70
2018-11-27T05:19:13.934Z,-0.70
2018-11-27T05:19:48.673Z,-0.70
2018-11-27T05:20:23.494Z,-0.70
2018-11-27T05:20:58.193Z,-0.70
2018-11-27T05:21:32.934Z,-0.70
2018-11-27T05:22:07.673Z,-0.70
2018-11-27T05:22:42.401Z,-0.70
2018-11-27T05:23:17.173Z,-0.70
2018-11-27T05:23:51.821Z,-0.70
2018-11-27T05:24:26.693Z,-0.70
2018-11-27T05:25:01.381Z,-0.70
2018-11-27T05:25:36.155Z,-0.70
2018-11-27T05:26:10.602Z,-0.70
2018-11-27T05:26:45.474Z,-0.70
2018-11-27T05:27:20.093Z,-0.70
2018-11-27T05:27:55.793Z,-0.70
2018-11-27T05:28:30.413Z,-0.70
2018-11-27T05:29:05.171Z,-0.70
2018-11-27T05:29:39.933Z,-0.70
2018-11-27T05:30:17.341Z,-0.70
2018-11-27T05:30:52.138Z,-0.70
2018-11-27T05:31:26.933Z,-0.70
2018-11-27T05:32:01.553Z,-0.70
2018-11-27T05:32:36.262Z,-0.70
2018-11-27T05:33:11.033Z,-0.70
2018-11-27T05:33:45.905Z,-0.70
2018-11-27T05:34:20.453Z,-0.70
2018-11-27T05:34:55.193Z,-0.70
2018-11-27T05:35:30.855Z,-0.70
2018-11-27T05:36:05.774Z,-0.70
2018-11-27T05:36:40.393Z,-0.70
2018-11-27T05:37:14.995Z,-0.70
2018-11-27T05:37:50.173Z,-0.70
2018-11-27T05:38:24.853Z,-0.70
2018-11-27T05:38:59.452Z,-0.70
2018-11-27T05:39:34.133Z,-0.70
2018-11-27T05:40:11.074Z,-0.70
2018-11-27T05:40:45.683Z,-0.70
2018-11-27T05:41:20.324Z,-0.70
2018-11-27T05:41:54.885Z,-0.70
2018-11-27T05:42:29.524Z,-0.70
2018-11-27T05:43:09.563Z,-0.60
2018-11-27T05:43:46.176Z,-0.70
2018-11-27T05:44:18.806Z,-0.60
2018-11-27T05:44:53.384Z,-0.70
2018-11-27T05:45:28.243Z,-0.70
2018-11-27T05:46:02.924Z,-0.70
2018-11-27T05:46:37.564Z,-0.70
2018-11-27T05:47:12.132Z,-0.70
2018-11-27T05:47:46.711Z,-0.70
2018-11-27T05:48:21.244Z,-0.70
2018-11-27T05:48:55.932Z,-0.70
2018-11-27T05:49:30.469Z,-0.70
2018-11-27T05:50:05.466Z,-0.70
2018-11-27T05:50:40.032Z,-0.70
2018-11-27T05:51:14.652Z,-0.70
2018-11-27T05:51:49.324Z,-0.70
2018-11-27T05:52:23.904Z,-0.70
2018-11-27T05:52:58.444Z,-0.70
2018-11-27T05:53:33.104Z,-0.70
2018-11-27T05:54:07.664Z,-0.70
2018-11-27T05:54:42.326Z,-0.70
2018-11-27T05:55:17.606Z,-0.70
2018-11-27T05:55:52.184Z,-0.70
2018-11-27T05:56:26.971Z,-0.70
2018-11-27T05:57:01.624Z,-0.70
2018-11-27T05:57:36.304Z,-0.70
2018-11-27T05:58:10.944Z,-0.70
2018-11-27T05:58:45.664Z,-0.70
2018-11-27T05:59:20.284Z,-0.70
2018-11-27T05:59:54.853Z,-0.70
2018-11-27T06:00:30.404Z,-0.70
2018-11-27T06:01:05.144Z,-0.70
2018-11-27T06:01:39.883Z,-0.70
2018-11-27T06:02:14.444Z,-0.70
2018-11-27T06:02:50.104Z,-0.70
2018-11-27T06:03:24.704Z,-0.70
2018-11-27T06:03:59.223Z,-0.70
2018-11-27T06:04:33.884Z,-0.70
2018-11-27T06:05:11.183Z,-0.70
2018-11-27T06:05:45.743Z,-0.60
2018-11-27T06:06:20.384Z,-0.60
2018-11-27T06:06:55.143Z,-0.70
2018-11-27T06:07:29.743Z,-0.60
2018-11-27T06:08:04.203Z,-0.60
2018-11-27T06:08:38.844Z,-0.70
2018-11-27T06:09:13.404Z,-0.60
2018-11-27T06:09:48.365Z,-0.60
2018-11-27T06:10:23.344Z,-0.60
2018-11-27T06:10:57.944Z,-0.60
2018-11-27T06:11:32.547Z,-0.60
2018-11-27T06:12:07.363Z,-0.60
2018-11-27T06:12:42.125Z,-0.60
2018-11-27T06:13:16.764Z,-0.60
2018-11-27T06:13:51.484Z,-0.60
2018-11-27T06:14:26.104Z,-0.60
2018-11-27T06:15:00.804Z,-0.60
2018-11-27T06:15:35.372Z,-0.60
2018-11-27T06:16:10.123Z,-0.60
2018-11-27T06:16:44.683Z,-0.60
2018-11-27T06:17:19.291Z,-0.60
2018-11-27T06:17:54.832Z,-0.60
2018-11-27T06:18:29.444Z,-0.60
2018-11-27T06:19:04.084Z,-0.70
2018-11-27T06:19:38.665Z,-0.60
2018-11-27T06:20:15.488Z,-0.60
2018-11-27T06:20:50.183Z,-0.60
2018-11-27T06:21:24.803Z,-0.60
2018-11-27T06:21:59.503Z,-0.70
2018-11-27T06:22:34.750Z,-0.70
2018-11-27T06:23:09.038Z,-0.60
2018-11-27T06:23:43.601Z,-0.70
2018-11-27T06:24:18.260Z,-0.70
2018-11-27T06:24:52.716Z,-0.70
2018-11-27T06:25:28.276Z,-0.70
2018-11-27T06:26:02.938Z,-0.70
2018-11-27T06:26:37.497Z,-0.70
2018-11-27T06:27:12.217Z,-0.70
2018-11-27T06:27:47.784Z,-0.70
2018-11-27T06:28:22.456Z,-0.70
2018-11-27T06:28:57.245Z,-0.70
2018-11-27T06:29:38.418Z,-0.70
2018-11-27T06:30:18.097Z,-0.70
2018-11-27T06:30:52.664Z,-0.60
2018-11-27T06:31:27.320Z,-0.60
2018-11-27T06:32:01.936Z,-0.60
2018-11-27T06:32:36.645Z,-0.60
2018-11-27T06:33:11.404Z,-0.60
2018-11-27T06:33:45.964Z,-0.60
2018-11-27T06:34:20.496Z,-0.60
2018-11-27T06:34:55.157Z,-0.60
2018-11-27T06:35:35.536Z,-0.60
2018-11-27T06:36:10.265Z,-0.60
2018-11-27T06:36:44.884Z,-0.60
2018-11-27T06:37:19.444Z,-0.60
2018-11-27T06:37:53.981Z,-0.60
2018-11-27T06:38:28.657Z,-0.60
2018-11-27T06:39:03.296Z,-0.60
2018-11-27T06:39:38.005Z,-0.60
2018-11-27T06:40:14.096Z,-0.60
2018-11-27T06:40:48.876Z,-0.60
2018-11-27T06:41:23.416Z,-0.60
2018-11-27T06:41:58.056Z,-0.60
2018-11-27T06:42:32.536Z,-0.60
2018-11-27T06:43:08.620Z,-0.60
2018-11-27T06:43:43.238Z,-0.60
2018-11-27T06:44:17.819Z,-0.60
2018-11-27T06:44:52.476Z,-0.60
2018-11-27T06:45:27.059Z,-0.60
2018-11-27T06:46:01.604Z,-0.60
2018-11-27T06:46:36.244Z,-0.60
2018-11-27T06:47:10.937Z,-0.60
2018-11-27T06:47:45.984Z,-0.60
2018-11-27T06:48:20.556Z,-0.70
2018-11-27T06:48:55.357Z,-0.60
2018-11-27T06:49:30.019Z,-0.60
2018-11-27T06:50:04.796Z,-0.60
2018-11-27T06:50:39.397Z,-0.60
2018-11-27T06:51:14.156Z,-0.60
2018-11-27T06:51:48.696Z,-0.60
2018-11-27T06:52:23.364Z,-0.70
2018-11-27T06:52:57.917Z,-0.60
2018-11-27T06:53:32.583Z,-0.60
2018-11-27T06:54:08.047Z,-0.60
2018-11-27T06:54:42.656Z,-0.60
2018-11-27T06:55:18.116Z,-0.60
2018-11-27T06:55:52.767Z,-0.60
2018-11-27T06:56:27.416Z,-0.60
2018-11-27T06:57:01.978Z,-0.60
2018-11-27T06:57:36.516Z,-0.60
2018-11-27T06:58:11.356Z,-0.60
2018-11-27T06:58:45.916Z,-0.60
2018-11-27T06:59:20.616Z,-0.60
2018-11-27T06:59:55.124Z,-0.60
2018-11-27T07:00:30.196Z,-0.60
2018-11-27T07:01:04.876Z,-0.60
2018-11-27T07:01:39.537Z,-0.60
2018-11-27T07:02:14.196Z,-0.60
2018-11-27T07:02:48.817Z,-0.60
2018-11-27T07:03:23.418Z,-0.60
2018-11-27T07:03:58.076Z,-0.60
2018-11-27T07:04:32.876Z,-0.50
2018-11-27T07:05:07.976Z,-0.60
2018-11-27T07:05:42.597Z,-0.60
2018-11-27T07:06:17.296Z,-0.60
2018-11-27T07:06:52.032Z,-0.60
2018-11-27T07:07:26.616Z,-0.60
2018-11-27T07:08:01.256Z,-0.60
2018-11-27T07:08:35.837Z,-0.60
2018-11-27T07:09:10.935Z,-0.60
2018-11-27T07:09:45.576Z,-0.60
2018-11-27T07:10:21.238Z,-0.60
2018-11-27T07:10:55.937Z,-0.60
2018-11-27T07:11:30.579Z,-0.60
2018-11-27T07:12:05.356Z,-0.60
2018-11-27T07:12:39.917Z,-0.60
2018-11-27T07:13:16.877Z,-0.60
2018-11-27T07:13:51.756Z,-0.60
2018-11-27T07:14:26.176Z,-0.60
2018-11-27T07:15:00.956Z,-0.60
2018-11-27T07:15:35.516Z,-0.60
2018-11-27T07:16:10.105Z,-0.60
2018-11-27T07:16:44.556Z,-0.60
2018-11-27T07:17:19.216Z,-0.60
2018-11-27T07:17:53.856Z,-0.60
2018-11-27T07:18:28.535Z,-0.60
2018-11-27T07:19:03.077Z,-0.60
2018-11-27T07:19:37.797Z,-0.60
2018-11-27T07:20:13.116Z,-0.60
2018-11-27T07:20:47.859Z,-0.60
2018-11-27T07:21:22.387Z,-0.60
2018-11-27T07:21:56.947Z,-0.60
2018-11-27T07:22:31.487Z,-0.60
2018-11-27T07:23:06.347Z,-0.60
2018-11-27T07:23:41.127Z,-0.60
2018-11-27T07:24:15.666Z,-0.60
2018-11-27T07:24:50.349Z,-0.60
2018-11-27T07:25:24.947Z,-0.60
2018-11-27T07:25:59.527Z,-0.60
2018-11-27T07:26:34.108Z,-0.60
2018-11-27T07:27:08.795Z,-0.50
2018-11-27T07:27:48.089Z,-0.60
2018-11-27T07:28:22.747Z,-0.60
2018-11-27T07:28:57.327Z,-0.60
2018-11-27T07:29:31.987Z,-0.50